Flight Track Log - Related Links

Times and Time Zones

All times are in EDT time to prevent confusion due to time zone crossing. See the GJS6245 flight status page for this flight to view local times or setup timezone preferences in your user account.

Time Position Orientation Groundspeed Altitude Reporting Facility
EDT Latitude Longitude Course Direction KTS MPH feet Rate Location/Type
Mon 04:41:34 PM 35.8703 -78.8061 240° Southwest 147 169 1,400  Level Washington Center
Mon 04:42:47 PM 35.8369 -78.8767 240° Southwest 235 270 3,500 1,689 Climbing Washington Center
Mon 04:43:17 PM 35.8406 -78.9103 278° West 244 281 4,300 2,778 Climbing Washington Center
Mon 04:43:41 PM 35.8442 -78.9600 275° West 282 325 6,000 2,952 Climbing Washington Center
Mon 04:44:20 PM 35.8517 -79.0011 283° West 264 304 7,400 2,760 Climbing Washington Center
Mon 04:45:21 PM 35.8683 -79.1056 281° West 273 314 10,600 2,640 Climbing Washington Center
Mon 04:46:25 PM 35.9078 -79.1953 299° West 313 360 12,900 1,795 Climbing Washington Center
Mon 04:47:28 PM 35.9878 -79.2592 327° Northwest 347 399 14,400 1,548 Climbing Washington Center
Mon 04:48:29 PM 36.0825 -79.3344 327° Northwest 375 432 16,100 1,770 Climbing Washington Center
Mon 04:49:30 PM 36.1736 -79.4078 327° Northwest 388 447 18,000 1,920 Climbing Washington Center
Mon 04:50:34 PM 36.2731 -79.4861 328° Northwest 391 450 20,100 1,839 Climbing Washington Center
Mon 04:51:34 PM 36.3631 -79.5617 326° Northwest 391 450 21,800 1,805 Climbing Washington Center
Mon 04:52:37 PM 36.4603 -79.6408 327° Northwest 392 451 23,800 1,465 Climbing Washington Center
Mon 04:53:41 PM 36.5511 -79.7125 328° Northwest 392 451 24,900 960 Climbing Washington Center
Mon 04:54:42 PM 36.6219 -79.8142 311° West 402 463 25,800 934 Climbing Washington Center
Mon 04:55:43 PM 36.6836 -79.9283 304° West 404 465 26,800 1,065 Climbing Washington Center
Mon 04:56:46 PM 36.7569 -80.0681 303° West 409 471 28,000 1,104 Climbing Washington Center
Mon 04:57:48 PM 36.8183 -80.1856 303° West 411 473 29,100 1,104 Climbing Washington Center
Mon 04:58:51 PM 36.8783 -80.3025 303° West 411 473 30,300 1,296 Climbing Washington Center
Mon 04:59:53 PM 36.9503 -80.4406 303° West 406 467 31,800 1,230 Climbing Washington Center
Mon 05:00:53 PM 37.0097 -80.5547 303° West 405 466 32,800 968 Climbing Washington Center
Mon 05:01:57 PM 37.0703 -80.6686 304° West 405 466 33,800 576 Climbing Washington Center
Mon 05:02:58 PM 37.1867 -80.7703 325° Northwest 441 507 34,000 97 Climbing Washington Center
Mon 05:04:01 PM 37.3011 -80.8372 335° Northwest 459 528 34,000  Level Washington Center
Mon 05:05:03 PM 37.4153 -80.9031 335° Northwest 460 529 34,000  Level Washington Center
Mon 05:06:07 PM 37.5278 -80.9694 335° Northwest 459 528 34,000  Level Washington Center
Mon 05:07:08 PM 37.6628 -81.0494 335° Northwest 458 527 34,000  Level Washington Center
Mon 05:08:11 PM 37.7750 -81.1167 335° Northwest 458 527 34,000  Level Washington Center
Mon 05:09:12 PM 37.8972 -81.1653 343° North 465 535 34,000  Level Washington Center
Mon 05:10:33 PM 38.0833 -81.2344 344° North 468 539 34,000  Level Indianapolis Center
Mon 05:11:35 PM 38.2050 -81.2800 344° North 461 531 34,000  Level Indianapolis Center
Mon 05:12:37 PM 38.3275 -81.3264 343° North 460 529 34,000  Level Indianapolis Center
Mon 05:13:39 PM 38.4483 -81.3719 344° North 458 527 34,000  Level Indianapolis Center
Mon 05:14:40 PM 38.5711 -81.4183 344° North 458 527 34,000  Level Indianapolis Center
Mon 05:16:44 PM 38.8447 -81.4994 347° North 473 544 34,000  Level Indianapolis Center
Mon 05:17:46 PM 38.9739 -81.5369 347° North 474 545 34,000  Level Indianapolis Center
Mon 05:18:47 PM 39.1031 -81.5750 347° North 475 547 34,000  Level Indianapolis Center
Mon 05:19:49 PM 39.2333 -81.6131 347° North 477 549 34,000  Level Indianapolis Center
Mon 05:20:51 PM 39.3917 -81.6617 347° North 482 555 34,000  Level Indianapolis Center
Mon 05:21:53 PM 39.5250 -81.6994 348° North 485 558 34,000  Level Indianapolis Center
Mon 05:22:55 PM 39.6581 -81.7397 347° North 487 560 34,000  Level Indianapolis Center
Mon 05:23:56 PM 39.7881 -81.7800 347° North 493 567 34,000  Level Indianapolis Center
Mon 05:24:58 PM 39.9219 -81.8194 347° North 493 567 34,000  Level Indianapolis Center
Mon 05:26:00 PM 40.0567 -81.8603 347° North 495 570 34,000 -581 Level Indianapolis Center
Mon 05:27:02 PM 40.2200 -81.9092 347° North 500 575 32,800 -1,161 Descending Indianapolis Center
Mon 05:28:04 PM 40.3539 -81.9500 347° North 482 555 31,600 -1,113 Descending Indianapolis Center
Mon 05:29:06 PM 40.4842 -81.9919 346° North 478 550 30,500 -774 Descending Indianapolis Center
Mon 05:30:08 PM 40.6056 -82.0508 340° North 459 528 30,000 -677 Descending Indianapolis Center
Mon 05:31:10 PM 40.7236 -82.1267 334° Northwest 460 529 29,100 -1,463 Descending Indianapolis Center
Mon 05:32:11 PM 40.8414 -82.2014 334° Northwest 466 536 27,000 -2,030 Descending Indianapolis Center
Mon 05:33:23 PM 40.9686 -82.2842 334° Northwest 437 503 24,600 -1,970 Descending Cleveland Center
Mon 05:34:25 PM 41.0750 -82.3522 334° Northwest 425 489 22,600 -2,129 Descending Cleveland Center
Mon 05:35:27 PM 41.1869 -82.4253 334° Northwest 437 503 20,200 -2,274 Descending Cleveland Center
Mon 05:36:29 PM 41.2942 -82.4947 334° Northwest 425 489 17,900 -2,081 Descending Cleveland Center
Mon 05:37:31 PM 41.4000 -82.5639 334° Northwest 420 483 15,900 -1,962 Descending Cleveland Center
Mon 05:38:13 PM 41.4869 -82.6233 333° Northwest 419 482 14,500 -1,839 Descending Cleveland Center
Mon 05:38:33 PM 41.5231 -82.6444 336° Northwest 419 482 14,000 -1,522 Descending Cleveland Center
Mon 05:39:20 PM 41.6008 -82.6992 332° Northwest 397 457 12,800 -1,452 Descending Cleveland Center
Mon 05:39:35 PM 41.6217 -82.7078 343° North 395 455 12,500 -716 Descending Cleveland Center
Mon 05:40:27 PM 41.6947 -82.7589 332° Northwest 305 351 12,000 -484 Descending Cleveland Center
Mon 05:40:37 PM 41.6950 -82.7564 82° East 335 386 12,000  Level Cleveland Center
Mon 05:41:28 PM 41.7594 -82.8206 323° Northwest 281 323 12,000 -290 Level Cleveland Center
Mon 05:41:39 PM 41.7678 -82.8350 308° West 286 329 11,700 -1,726 Descending Cleveland Center
Mon 05:42:41 PM 41.8044 -82.9211 300° West 268 308 9,900 -1,500 Descending Cleveland Center
Mon 05:43:23 PM 41.8311 -82.9839 300° West 262 302 9,100 -871 Descending Cleveland Center
Mon 05:43:43 PM 41.8425 -83.0039 307° West 262 302 9,000 -982 Descending Cleveland Center
Mon 05:44:18 PM 41.8669 -83.0617 300° West 270 311 8,200 -1,333 Descending Cleveland Center
Mon 05:44:46 PM 41.8814 -83.0908 304° West 268 308 7,600 -1,433 Descending Cleveland Center
Mon 05:45:25 PM 41.9078 -83.1597 297° West 257 296 6,600 -1,258 Descending Cleveland Center
Mon 05:45:48 PM 41.9142 -83.1764 297° West 261 300 6,300 -492 Descending Cleveland Center
Mon 05:46:26 PM 41.9328 -83.2417 291° West 239 275 6,100 -290 Descending Cleveland Center
Mon 05:46:50 PM 41.9411 -83.2722 290° West 243 280 6,000 -590 Descending Cleveland Center
Mon 05:47:27 PM 41.9558 -83.3236 291° West 229 264 5,500 -1,065 Descending Cleveland Center
Mon 05:47:52 PM 41.9633 -83.3531 289° West 234 269 4,900 -2,060 Descending Cleveland Center
Mon 05:48:34 PM 41.9742 -83.4103 284° West 216 249 3,200 -1,742 Descending Cleveland Center
Mon 05:48:54 PM 41.9814 -83.4336 293° West 220 253 3,100 -111 Descending Cleveland Center
Mon 05:49:28 PM 42.0178 -83.4444 348° North 220 253 3,100 -97 Level Cleveland Center
Mon 05:49:56 PM 42.0403 -83.4475 354° North 223 257 3,000  Descending Cleveland Center
Mon 05:50:29 PM 42.0725 -83.4411 North 188 216 3,100  Climbing Cleveland Center
Mon 05:50:58 PM 42.0897 -83.4303 25° Northeast 204 235 3,000 -590 Descending Cleveland Center
Mon 05:51:30 PM 42.1189 -83.4083 29° Northeast 176 203 2,500 -774 Descending Cleveland Center
Mon 05:52:00 PM 42.1331 -83.3983 28° Northeast 189 217 2,200 -806 Descending Cleveland Center
Mon 05:52:37 PM 42.1569 -83.3800 30° Northeast 135 155 1,600 -774 Descending Cleveland Center
Mon 05:53:02 PM 42.1650 -83.3742 28° Northeast 153 176 1,400 -787 Descending Cleveland Center
Mon 05:53:38 PM 42.1903 -83.3536 31° Northeast 133 153 800 -571 Descending Cleveland Center
Mon 05:54:05 PM 42.2008 -83.3472 24° Northeast 143 165 800  Level Cleveland Center
Mon 05:56:00 PM 42.2000 -83.3500 312° West  Level FlightAware Approximate

Login

Don't have an account? Register now (free) for customized features, flight alerts, and more!